Time;durP1;ratioP1;P1;durP2;ratioP2;P2;SDS_P1;SDS_P2;PMS_P1;PMS_P2;Temp;Humidity;BMP_temperature;BMP_pressure;BME280_temperature;BME280_humidity;BME280_pressure;Samples;Min_cycle;Max_cycle;Signal;HPM_P1;HPM_P2
2021/06/19 00:01:39;;;;;;;3.85;2.67;;;24.30;99.90;;;;;;12047927;28;20143;-77
2021/06/19 00:07:26;;;;;;;3.80;1.98;;;24.30;99.90;;;;;;12050172;28;20098;-77
2021/06/19 00:13:16;;;;;;;8.02;2.78;;;24.30;99.90;;;;;;12047392;28;20099;-77
2021/06/19 00:19:03;;;;;;;3.47;2.22;;;24.20;99.90;;;;;;12041478;28;20056;-77
2021/06/19 00:24:50;;;;;;;4.25;2.40;;;24.10;99.90;;;;;;12235099;22;20056;-56
2021/06/19 00:30:38;;;;;;;7.03;2.60;;;24.10;99.90;;;;;;11898670;28;20060;-56
2021/06/19 00:36:25;;;;;;;4.22;2.40;;;24.00;99.90;;;;;;11912523;28;20099;-55
2021/06/19 00:42:12;;;;;;;10.23;2.35;;;24.00;99.90;;;;;;11913347;28;20073;-57
2021/06/19 00:48:00;;;;;;;5.18;2.20;;;24.00;99.90;;;;;;11914405;28;20045;-53
2021/06/19 00:53:47;;;;;;;8.68;2.75;;;24.10;99.90;;;;;;11921528;28;20517;-54
2021/06/19 00:59:35;;;;;;;9.60;2.33;;;24.00;99.90;;;;;;11911992;28;20430;-54
2021/06/19 01:05:25;;;;;;;11.88;2.75;;;23.90;99.90;;;;;;11900152;28;20534;-54
2021/06/19 01:11:12;;;;;;;7.25;3.13;;;23.80;99.90;;;;;;11918281;28;20053;-55
2021/06/19 01:16:59;;;;;;;4.28;2.50;;;23.80;99.90;;;;;;11915677;28;20042;-55
2021/06/19 01:22:49;;;;;;;12.25;2.67;;;23.80;99.90;;;;;;11915548;28;20034;-54
2021/06/19 01:28:37;;;;;;;6.30;2.50;;;23.70;99.90;;;;;;11909193;28;20053;-57
2021/06/19 01:34:24;;;;;;;9.18;2.72;;;23.50;99.90;;;;;;11902253;28;20538;-55
2021/06/19 01:40:13;;;;;;;4.90;2.60;;;23.50;99.90;;;;;;11909008;28;20530;-57
2021/06/19 01:46:01;;;;;;;4.93;2.47;;;23.50;99.90;;;;;;11916931;28;20056;-58
2021/06/19 01:51:48;;;;;;;8.85;2.97;;;23.60;99.90;;;;;;11913661;28;20049;-55
2021/06/19 01:57:37;;;;;;;5.72;2.15;;;23.70;99.90;;;;;;11913914;28;20539;-58
2021/06/19 02:03:25;;;;;;;5.00;2.65;;;23.70;99.90;;;;;;11917289;28;20079;-56
2021/06/19 02:09:12;;;;;;;5.13;2.85;;;23.70;99.90;;;;;;11913317;28;20829;-57
2021/06/19 02:14:59;;;;;;;6.38;2.83;;;23.80;99.90;;;;;;11911401;28;20042;-57
2021/06/19 02:20:52;;;;;;;5.80;2.78;;;23.80;99.90;;;;;;11914327;28;20049;-58
2021/06/19 02:26:39;;;;;;;3.67;2.90;;;23.70;99.90;;;;;;11890064;28;20083;-56
2021/06/19 02:32:26;;;;;;;8.50;2.88;;;23.70;99.90;;;;;;11914244;28;20042;-56
2021/06/19 07:03:31;;;;;;;3.03;2.42;;;22.60;99.90;;;;;;12140298;27;20387;-53
2021/06/19 07:09:18;;;;;;;6.03;2.65;;;23.10;99.90;;;;;;12061926;28;20469;-57
2021/06/19 07:15:06;;;;;;;5.53;2.67;;;24.10;99.90;;;;;;12105024;27;20075;-56
2021/06/19 07:20:54;;;;;;;4.68;3.40;;;24.90;99.90;;;;;;12095124;27;20082;-56
2021/06/19 07:26:41;;;;;;;7.10;3.75;;;25.30;99.90;;;;;;12094600;27;20067;-55
2021/06/19 07:32:28;;;;;;;19.35;3.47;;;25.40;99.90;;;;;;12105602;27;20051;-54
2021/06/19 07:38:16;;;;;;;6.68;3.28;;;25.40;99.90;;;;;;12096987;27;21487;-53
2021/06/19 07:44:04;;;;;;;4.10;2.95;;;25.50;99.90;;;;;;12093419;27;20254;-54
2021/06/19 07:49:51;;;;;;;7.10;3.10;;;25.30;99.90;;;;;;12051108;28;20044;-58
2021/06/19 07:55:40;;;;;;;6.32;3.28;;;25.20;99.90;;;;;;12089557;28;20094;-56
2021/06/19 08:01:27;;;;;;;3.67;2.75;;;25.30;99.90;;;;;;12107758;27;20434;-59
2021/06/19 08:07:14;;;;;;;6.35;3.50;;;25.30;99.90;;;;;;12103323;27;20521;-55
2021/06/19 08:13:03;;;;;;;5.15;3.17;;;25.30;99.90;;;;;;12073630;27;20048;-53
2021/06/19 08:18:49;;;;;;;4.70;3.38;;;25.20;99.90;;;;;;12070372;27;20048;-55
2021/06/19 08:24:36;;;;;;;6.07;3.63;;;25.10;99.90;;;;;;12070524;28;20051;-57
2021/06/19 08:30:25;;;;;;;7.78;3.38;;;25.10;99.90;;;;;;12062961;28;20469;-55
2021/06/19 08:36:12;;;;;;;4.22;3.60;;;25.20;99.90;;;;;;12060838;28;20052;-57
2021/06/19 08:42:00;;;;;;;6.22;3.85;;;25.50;99.90;;;;;;12058081;27;20105;-54
2021/06/19 08:47:49;;;;;;;5.85;4.03;;;25.70;99.90;;;;;;12064312;27;20075;-54
2021/06/19 08:53:35;;;;;;;6.78;5.72;;;25.60;99.90;;;;;;12050181;27;20570;-54
2021/06/19 08:59:22;;;;;;;10.32;6.18;;;25.40;99.90;;;;;;12065491;27;20468;-57
2021/06/19 09:05:14;;;;;;;8.73;5.35;;;25.30;99.90;;;;;;12075025;28;20048;-56
2021/06/19 09:11:00;;;;;;;8.77;5.32;;;25.40;99.90;;;;;;12067345;28;20044;-55
2021/06/19 09:16:57;;;;;;;14.15;6.82;;;25.40;99.90;;;;;;12038658;27;20112;-54
2021/06/19 09:22:46;;;;;;;11.13;7.30;;;25.60;99.90;;;;;;12040871;28;20055;-56
2021/06/19 09:28:32;;;;;;;16.08;7.25;;;25.90;99.90;;;;;;12023185;28;20105;-56
2021/06/19 09:34:21;;;;;;;12.13;6.47;;;26.10;99.90;;;;;;12072129;28;21865;-56
2021/06/19 09:40:29;;;;;;;9.50;6.32;;;26.30;99.90;;;;;;12066007;27;20206;-57
2021/06/19 09:46:16;;;;;;;12.20;5.72;;;26.40;99.90;;;;;;12066287;28;20076;-57
2021/06/19 09:52:04;;;;;;;8.32;5.57;;;26.50;99.90;;;;;;12062680;27;20044;-55
2021/06/19 09:57:52;;;;;;;9.75;4.82;;;26.70;99.90;;;;;;12059397;27;20454;-53
2021/06/19 10:03:53;;;;;;;7.25;4.40;;;27.00;99.90;;;;;;12062919;28;20145;-55
2021/06/19 10:09:41;;;;;;;9.45;4.65;;;27.20;99.90;;;;;;12044135;28;20126;-55
2021/06/19 10:15:32;;;;;;;10.23;5.03;;;27.40;99.90;;;;;;12006832;28;20060;-55
2021/06/19 10:21:19;;;;;;;7.90;4.10;;;27.30;99.90;;;;;;12000643;28;20536;-55
2021/06/19 10:27:07;;;;;;;8.98;4.90;;;27.30;99.90;;;;;;12010562;28;20496;-62
2021/06/19 10:32:56;;;;;;;5.78;4.30;;;27.40;99.90;;;;;;12008360;28;20059;-64
2021/06/19 10:38:48;;;;;;;6.85;4.75;;;27.40;99.90;;;;;;12048084;28;20489;-56
2021/06/19 10:44:53;;;;;;;6.93;4.13;;;27.50;99.90;;;;;;12046763;28;20579;-60
2021/06/19 10:50:43;;;;;;;4.85;3.40;;;27.50;99.90;;;;;;12034660;27;20047;-61
2021/06/19 10:56:45;;;;;;;6.70;4.60;;;27.80;99.90;;;;;;12043772;28;20043;-56
2021/06/19 11:02:50;;;;;;;6.82;3.42;;;27.80;99.50;;;;;;11975464;28;20064;-55
2021/06/19 11:09:00;;;;;;;7.82;3.92;;;28.00;99.60;;;;;;12015077;28;20048;-55
2021/06/19 11:15:02;;;;;;;6.00;3.40;;;28.30;99.20;;;;;;12045584;27;20516;-56
2021/06/19 11:27:11;;;;;;;5.82;3.50;;;28.90;97.00;;;;;;12035532;27;21878;-66
2021/06/19 11:33:42;;;;;;;4.57;3.72;;;28.80;96.40;;;;;;12044417;27;20512;-52
2021/06/19 11:39:34;;;;;;;6.70;4.20;;;28.80;95.00;;;;;;12041694;27;20052;-54
2021/06/19 11:45:23;;;;;;;4.30;3.22;;;28.60;94.70;;;;;;12050096;28;20059;-54
2021/06/19 11:51:10;;;;;;;5.85;3.97;;;28.60;95.40;;;;;;12052881;28;20055;-54
2021/06/19 11:56:57;;;;;;;7.32;4.00;;;28.70;95.40;;;;;;12050602;27;20507;-54
2021/06/19 12:02:52;;;;;;;6.65;4.05;;;28.90;95.20;;;;;;12052998;28;20457;-50
2021/06/19 12:08:40;;;;;;;5.88;3.97;;;28.80;94.30;;;;;;12051400;27;20055;-50
2021/06/19 12:14:29;;;;;;;7.15;3.85;;;29.00;93.40;;;;;;12055540;28;20047;-53
2021/06/19 12:20:21;;;;;;;4.97;3.60;;;29.00;92.90;;;;;;12051589;28;20074;-55
2021/06/19 12:26:10;;;;;;;6.15;3.70;;;29.10;93.20;;;;;;12050855;27;20048;-51
2021/06/19 12:31:57;;;;;;;8.00;4.03;;;29.30;92.70;;;;;;12043659;27;20040;-55
2021/06/19 12:37:52;;;;;;;4.13;3.72;;;29.40;92.00;;;;;;12081906;28;20457;-53
2021/06/19 12:43:48;;;;;;;6.75;3.13;;;29.40;91.50;;;;;;12097124;28;20059;-52
2021/06/19 12:49:53;;;;;;;10.02;4.20;;;29.30;92.00;;;;;;12041869;27;20052;-54
2021/06/19 12:55:43;;;;;;;7.50;3.97;;;29.50;90.40;;;;;;12064958;28;20066;-56
2021/06/19 13:01:31;;;;;;;5.07;3.75;;;29.90;89.80;;;;;;12090460;28;20044;-54
2021/06/19 13:07:17;;;;;;;5.85;4.53;;;30.00;90.40;;;;;;12082825;28;20059;-52
2021/06/19 13:13:06;;;;;;;6.30;4.70;;;30.10;88.50;;;;;;12074657;28;20054;-56
2021/06/19 13:19:03;;;;;;;6.97;4.68;;;29.90;89.60;;;;;;12090037;28;20131;-56
2021/06/19 13:24:59;;;;;;;4.72;4.22;;;29.60;90.70;;;;;;12085261;28;20044;-56
2021/06/19 13:31:05;;;;;;;8.77;4.40;;;29.60;91.10;;;;;;12035020;28;20067;-55
2021/06/19 13:36:53;;;;;;;7.03;4.60;;;29.70;91.30;;;;;;12033354;27;20101;-56
2021/06/19 13:42:57;;;;;;;9.07;5.15;;;29.70;90.50;;;;;;12030600;28;20056;-56
2021/06/19 13:48:45;;;;;;;8.10;4.97;;;29.90;87.90;;;;;;11981968;28;20044;-56
2021/06/19 13:54:40;;;;;;;5.95;5.03;;;29.50;90.30;;;;;;12000274;28;20071;-55
2021/06/19 14:00:29;;;;;;;6.20;5.03;;;29.60;90.10;;;;;;12034936;27;20059;-56
2021/06/19 14:06:17;;;;;;;9.80;4.68;;;29.70;90.00;;;;;;12007756;27;20053;-53
2021/06/19 14:12:07;;;;;;;7.25;4.95;;;29.50;89.00;;;;;;12031395;28;20081;-56
2021/06/19 14:17:54;;;;;;;8.13;4.70;;;29.10;90.00;;;;;;12034489;27;20055;-56
2021/06/19 14:23:43;;;;;;;6.78;5.18;;;28.90;91.70;;;;;;12007808;27;20596;-57
2021/06/19 14:29:30;;;;;;;5.07;4.50;;;28.30;92.30;;;;;;11983587;28;20428;-56
2021/06/19 14:35:17;;;;;;;5.60;4.70;;;28.00;93.60;;;;;;11980690;28;20110;-56
2021/06/19 14:41:06;;;;;;;7.38;4.72;;;28.00;93.70;;;;;;11999517;28;20048;-57
2021/06/19 14:46:53;;;;;;;8.07;4.88;;;27.90;94.40;;;;;;12028340;28;20048;-59
2021/06/19 14:52:40;;;;;;;8.77;4.55;;;27.80;95.00;;;;;;12027376;28;20404;-58
2021/06/19 14:58:28;;;;;;;7.35;4.28;;;27.50;95.80;;;;;;12023263;28;20055;-58
2021/06/19 15:04:16;;;;;;;7.53;4.10;;;27.40;96.20;;;;;;12031482;28;20953;-56
2021/06/19 15:10:03;;;;;;;5.15;4.45;;;27.30;96.60;;;;;;12028030;28;20106;-57
2021/06/19 15:15:52;;;;;;;4.50;3.78;;;27.10;97.20;;;;;;12036680;27;20048;-57
2021/06/19 15:21:39;;;;;;;4.63;3.97;;;27.00;98.10;;;;;;12027368;27;20392;-55
2021/06/19 15:27:26;;;;;;;9.05;4.50;;;26.80;98.60;;;;;;12031384;27;20105;-57
2021/06/19 15:33:15;;;;;;;8.73;5.63;;;26.60;99.90;;;;;;12041320;28;20052;-58
2021/06/19 15:39:01;;;;;;;14.95;8.27;;;26.20;99.90;;;;;;12031690;28;20068;-54
2021/06/19 15:44:49;;;;;;;22.15;9.05;;;25.50;99.90;;;;;;12034390;28;20060;-58
2021/06/19 15:50:37;;;;;;;21.70;11.32;;;24.90;99.90;;;;;;12031652;27;20063;-59
2021/06/19 15:56:24;;;;;;;28.20;12.07;;;24.10;99.90;;;;;;12034748;28;20052;-56
2021/06/19 16:02:11;;;;;;;30.60;15.02;;;23.70;99.90;;;;;;12037264;28;20047;-59
2021/06/19 16:07:59;;;;;;;60.08;19.88;;;23.30;99.90;;;;;;12040391;27;20040;-56
2021/06/19 16:13:46;;;;;;;78.22;23.73;;;22.80;99.90;;;;;;12014604;28;20512;-57
2021/06/19 16:19:33;;;;;;;24.20;17.08;;;22.20;99.90;;;;;;12037413;27;20044;-57
2021/06/19 16:25:21;;;;;;;30.65;19.38;;;22.30;99.90;;;;;;12037175;27;20047;-59
2021/06/19 16:31:09;;;;;;;28.23;18.13;;;22.60;99.90;;;;;;12032855;27;20036;-59
2021/06/19 16:36:56;;;;;;;23.90;17.38;;;22.80;99.90;;;;;;12035028;27;20079;-61
2021/06/19 16:42:44;;;;;;;21.00;13.50;;;23.20;99.90;;;;;;12031657;27;21443;-59
2021/06/19 16:48:31;;;;;;;19.02;13.68;;;22.90;99.90;;;;;;12034776;27;20059;-60
2021/06/19 16:54:21;;;;;;;17.35;13.27;;;23.20;99.90;;;;;;12021163;27;20490;-59
2021/06/19 17:00:10;;;;;;;18.55;12.70;;;23.40;99.90;;;;;;12047364;28;20056;-58
2021/06/19 17:05:57;;;;;;;19.08;13.98;;;23.40;99.90;;;;;;12031610;28;20736;-59
2021/06/19 17:11:43;;;;;;;15.23;12.40;;;23.60;99.90;;;;;;12030977;27;20679;-59
2021/06/19 17:17:32;;;;;;;15.65;11.80;;;24.00;99.90;;;;;;12010762;28;20101;-59
2021/06/19 17:23:19;;;;;;;13.88;11.02;;;24.10;99.90;;;;;;12008924;27;20705;-58
2021/06/19 17:29:06;;;;;;;13.52;10.77;;;23.90;99.90;;;;;;12019329;28;20087;-59
2021/06/19 17:34:54;;;;;;;12.45;11.07;;;23.90;99.90;;;;;;12031322;27;20052;-58
2021/06/19 17:40:41;;;;;;;18.02;12.70;;;24.00;99.90;;;;;;12025153;27;20105;-58
2021/06/19 17:46:29;;;;;;;16.33;12.57;;;24.10;99.90;;;;;;12027443;27;20137;-58
2021/06/19 17:52:18;;;;;;;22.05;13.07;;;23.90;99.90;;;;;;12023585;28;20048;-59
2021/06/19 17:58:05;;;;;;;19.80;13.38;;;23.80;99.90;;;;;;12039018;28;20504;-59
2021/06/19 18:03:53;;;;;;;17.00;13.18;;;23.70;99.90;;;;;;12028161;28;20067;-58
2021/06/19 18:09:41;;;;;;;18.60;13.38;;;23.60;99.90;;;;;;12002558;28;20071;-57
2021/06/19 18:15:28;;;;;;;14.88;12.63;;;23.60;99.90;;;;;;11986087;28;20867;-58
2021/06/19 18:21:15;;;;;;;14.68;12.77;;;23.70;99.90;;;;;;12030271;27;20056;-58
2021/06/19 18:27:04;;;;;;;15.60;12.73;;;23.80;99.90;;;;;;12021336;27;20595;-58
2021/06/19 18:32:51;;;;;;;15.50;12.63;;;23.90;99.90;;;;;;12039065;28;20048;-58
2021/06/19 18:38:38;;;;;;;14.68;12.65;;;24.00;99.90;;;;;;12036744;27;20040;-58
2021/06/19 18:44:38;;;;;;;14.23;11.90;;;23.90;99.90;;;;;;12030518;28;20072;-58
2021/06/19 18:50:25;;;;;;;14.20;11.48;;;23.90;99.90;;;;;;12027555;28;20107;-59
2021/06/19 18:56:12;;;;;;;15.15;11.35;;;23.90;99.90;;;;;;12005574;27;21029;-59
2021/06/19 19:02:00;;;;;;;14.38;11.68;;;23.90;99.90;;;;;;12028795;28;20633;-59
